Time;durP1;ratioP1;P1;durP2;ratioP2;P2;SDS_P1;SDS_P2;PMS_P1;PMS_P2;Temp;Humidity;BMP_temperature;BMP_pressure;BME280_temperature;BME280_humidity;BME280_pressure;Samples;Min_cycle;Max_cycle;Signal;HPM_P1;HPM_P2
2023/09/28 00:01:32;;;;;;;7.27;4.13;;;;;;;18.69;64.37;94908.25;5150983;27;20263;-45
2023/09/28 00:03:59;;;;;;;3.65;3.30;;;;;;;18.68;64.44;94909.25;5132118;27;20645;-45
2023/09/28 00:06:26;;;;;;;8.60;4.17;;;;;;;18.71;64.70;94916.69;5132362;27;20204;-45
2023/09/28 00:08:53;;;;;;;6.20;3.77;;;;;;;18.65;64.73;94910.44;5132532;27;20185;-46
2023/09/28 00:11:19;;;;;;;6.90;3.50;;;;;;;18.62;65.19;94910.00;5131920;27;20197;-45
2023/09/28 00:13:45;;;;;;;6.67;3.40;;;;;;;18.58;65.61;94914.72;5132165;27;20181;-44
2023/09/28 00:16:11;;;;;;;6.77;4.03;;;;;;;18.50;66.06;94910.44;5137159;27;20563;-45
2023/09/28 00:18:38;;;;;;;10.10;3.60;;;;;;;18.25;66.90;94881.44;5152720;27;20196;-45
2023/09/28 00:21:04;;;;;;;9.27;3.70;;;;;;;18.35;67.10;94899.31;5152224;27;20696;-47
2023/09/28 00:23:32;;;;;;;12.77;4.30;;;;;;;18.26;67.26;94890.00;5152692;27;20191;-46
2023/09/28 00:25:58;;;;;;;10.40;4.50;;;;;;;18.18;67.79;94898.69;5153790;27;20180;-46
2023/09/28 00:28:25;;;;;;;7.07;3.63;;;;;;;18.20;67.84;94898.50;5152416;27;20233;-44
2023/09/28 00:30:52;;;;;;;7.53;3.43;;;;;;;18.14;68.14;94897.44;5152208;27;20184;-45
2023/09/28 00:33:19;;;;;;;6.90;4.10;;;;;;;17.95;68.57;94885.84;5152719;27;20185;-45
2023/09/28 00:35:45;;;;;;;6.40;3.57;;;;;;;18.05;68.63;94906.28;5152248;27;20195;-44
2023/09/28 00:38:12;;;;;;;7.17;3.93;;;;;;;17.99;69.24;94901.81;5151469;27;20218;-45
2023/09/28 00:40:40;;;;;;;7.90;4.30;;;;;;;17.90;69.29;94895.13;5152202;27;20191;-45
2023/09/28 00:43:07;;;;;;;9.03;4.00;;;;;;;17.89;70.21;94902.09;5151966;27;20640;-45
2023/09/28 00:45:33;;;;;;;9.00;4.40;;;;;;;17.88;70.77;94910.84;5152016;27;20214;-46
2023/09/28 00:48:02;;;;;;;9.90;3.47;;;;;;;16.89;71.22;94773.06;5152184;27;20180;-44
2023/09/28 00:50:31;;;;;;;7.00;4.23;;;;;;;17.68;71.75;94907.91;5152393;27;20188;-44
2023/09/28 00:53:00;;;;;;;5.10;4.03;;;;;;;17.64;72.17;94908.44;5152047;27;20202;-44
2023/09/28 00:55:27;;;;;;;7.63;4.37;;;;;;;17.60;72.48;94907.97;5151965;27;20192;-44
2023/09/28 00:58:00;;;;;;;8.57;4.23;;;;;;;17.51;72.71;94901.28;5151753;27;20226;-44
2023/09/28 01:00:27;;;;;;;4.50;3.50;;;;;;;17.40;73.02;94894.75;5151711;27;20183;-44
2023/09/28 01:02:56;;;;;;;6.20;4.40;;;;;;;17.35;73.53;94891.88;5152078;27;20190;-45
2023/09/28 01:05:23;;;;;;;6.40;4.10;;;;;;;17.36;73.51;94900.41;5151721;27;20660;-45
2023/09/28 01:07:50;;;;;;;6.63;4.23;;;;;;;17.37;73.44;94905.44;5152099;27;20211;-45
2023/09/28 01:10:23;;;;;;;11.13;4.30;;;;;;;17.37;73.43;94895.09;5151857;27;20641;-45
2023/09/28 01:12:50;;;;;;;6.60;4.13;;;;;;;17.37;73.50;94897.69;5151320;27;20255;-45
2023/09/28 01:15:17;;;;;;;7.17;3.50;;;;;;;17.33;74.35;94896.41;5151441;27;20672;-45
2023/09/28 01:17:45;;;;;;;9.40;3.70;;;;;;;17.30;74.52;94894.19;5151259;27;20715;-44
2023/09/28 01:20:18;;;;;;;4.80;3.77;;;;;;;17.23;74.54;94885.53;5151869;27;20187;-44
2023/09/28 01:22:49;;;;;;;6.63;4.43;;;;;;;17.31;74.88;94900.94;5151340;27;20225;-45
2023/09/28 01:25:15;;;;;;;5.20;3.77;;;;;;;17.29;74.69;94902.91;5151224;27;20195;-44
2023/09/28 01:27:44;;;;;;;6.33;3.83;;;;;;;17.28;74.56;94909.88;5170955;27;20215;-45
2023/09/28 01:30:11;;;;;;;6.83;3.93;;;;;;;17.27;74.59;94902.28;5172294;27;20230;-45
2023/09/28 01:32:38;;;;;;;6.23;4.03;;;;;;;17.22;74.24;94905.38;5153657;27;20190;-44
2023/09/28 01:35:06;;;;;;;9.60;4.60;;;;;;;17.20;74.34;94915.09;5171679;27;20194;-44
2023/09/28 01:37:43;;;;;;;9.77;4.40;;;;;;;17.16;74.38;94906.06;5172103;27;20213;-45
2023/09/28 01:40:13;;;;;;;8.10;4.73;;;;;;;17.08;74.49;94913.09;5171205;27;20674;-46
2023/09/28 01:42:40;;;;;;;9.50;4.80;;;;;;;17.02;74.43;94906.84;5172478;27;20195;-44
2023/09/28 01:45:07;;;;;;;10.40;4.93;;;;;;;17.01;74.68;94918.94;5171118;27;20191;-47
2023/09/28 01:47:34;;;;;;;14.53;4.87;;;;;;;16.94;74.95;94915.44;5172026;27;20194;-46
2023/09/28 01:50:03;;;;;;;9.47;4.33;;;;;;;16.71;75.16;94888.72;5171990;27;20748;-46
2023/09/28 01:52:30;;;;;;;6.80;3.90;;;;;;;16.81;75.24;94912.59;5173138;27;20269;-44
2023/09/28 01:54:56;;;;;;;8.90;4.40;;;;;;;16.80;75.29;94908.44;5171338;27;20193;-45
2023/09/28 01:57:24;;;;;;;12.90;4.40;;;;;;;16.80;75.38;94926.50;5171696;27;20214;-45
2023/09/28 01:59:50;;;;;;;15.03;4.83;;;;;;;16.75;75.49;94910.69;5171698;27;20191;-43
2023/09/28 02:02:17;;;;;;;4.57;4.00;;;;;;;16.71;75.45;94910.22;5160927;27;20188;-44
2023/09/28 02:04:44;;;;;;;7.37;3.60;;;;;;;16.71;75.54;94906.81;5150654;27;20730;-46
2023/09/28 02:07:10;;;;;;;8.37;4.43;;;;;;;16.68;75.72;94914.91;5150962;27;20278;-45
2023/09/28 02:09:37;;;;;;;6.97;4.50;;;;;;;16.64;75.79;94909.28;5152345;27;20683;-46
2023/09/28 02:12:04;;;;;;;10.13;4.17;;;;;;;16.61;75.62;94901.06;5171416;27;20183;-43
2023/09/28 02:14:32;;;;;;;8.73;4.40;;;;;;;16.56;76.24;94911.91;5171566;27;20194;-44
2023/09/28 02:16:58;;;;;;;8.10;4.37;;;;;;;16.50;76.50;94910.81;5171289;27;20218;-46
2023/09/28 02:19:25;;;;;;;7.10;4.40;;;;;;;16.46;76.78;94911.31;5171590;27;20620;-45
2023/09/28 02:21:51;;;;;;;8.33;4.10;;;;;;;16.42;77.04;94917.78;5171582;27;20175;-46
2023/09/28 02:24:18;;;;;;;9.00;4.03;;;;;;;16.38;76.96;94912.16;5171306;27;20195;-46
2023/09/28 02:26:44;;;;;;;5.33;3.93;;;;;;;16.35;77.27;94922.00;5171541;27;20310;-46
2023/09/28 02:29:11;;;;;;;6.53;4.17;;;;;;;16.33;77.55;94916.22;5171604;27;20628;-44
2023/09/28 02:31:41;;;;;;;6.63;4.80;;;;;;;16.24;78.07;94912.84;5171099;27;20191;-45
2023/09/28 02:34:07;;;;;;;8.20;4.30;;;;;;;16.24;78.28;94925.75;5170656;27;20244;-44
2023/09/28 02:36:35;;;;;;;5.90;4.27;;;;;;;16.20;78.47;94922.69;5171090;27;20191;-46
2023/09/28 02:39:01;;;;;;;7.07;4.30;;;;;;;16.11;78.95;94912.56;5170707;27;20777;-45
2023/09/28 02:41:27;;;;;;;11.97;4.60;;;;;;;16.15;79.13;94927.56;5171026;27;20291;-46
2023/09/28 02:43:53;;;;;;;14.53;4.67;;;;;;;16.06;79.34;94915.63;5171150;27;20190;-45
2023/09/28 02:46:20;;;;;;;7.40;4.40;;;;;;;16.07;79.81;94927.56;5170988;27;20206;-45
2023/09/28 02:48:47;;;;;;;7.57;4.60;;;;;;;16.04;79.94;94931.28;5170570;27;20196;-44
2023/09/28 02:51:14;;;;;;;8.47;4.43;;;;;;;16.02;80.28;94932.44;5171380;27;20187;-46
2023/09/28 02:53:40;;;;;;;8.77;4.03;;;;;;;16.00;80.52;94926.63;5171219;27;20198;-46
2023/09/28 02:56:06;;;;;;;10.03;4.70;;;;;;;15.96;81.02;94928.72;5171046;27;20183;-44
2023/09/28 02:58:32;;;;;;;10.83;5.03;;;;;;;15.93;81.48;94929.06;5170851;27;20223;-45
2023/09/28 03:00:59;;;;;;;10.60;4.93;;;;;;;15.90;81.74;94931.97;5173982;27;20337;-46
2023/09/28 03:03:25;;;;;;;5.43;4.60;;;;;;;15.87;81.88;94934.06;5173840;27;20179;-46
2023/09/28 03:05:56;;;;;;;12.80;5.07;;;;;;;15.82;82.11;94931.97;5175413;27;20190;-44
2023/09/28 03:08:22;;;;;;;7.57;4.73;;;;;;;15.79;82.50;94930.53;5174576;27;20659;-52
2023/09/28 03:10:50;;;;;;;7.33;5.10;;;;;;;15.66;82.65;94906.22;5175373;27;20255;-46
2023/09/28 03:13:16;;;;;;;6.47;4.57;;;;;;;15.78;82.72;94926.34;5173010;27;20198;-45
2023/09/28 03:15:44;;;;;;;8.83;4.83;;;;;;;15.76;82.88;94925.72;5176211;27;20190;-46
2023/09/28 03:18:10;;;;;;;7.97;5.13;;;;;;;15.74;83.46;94921.66;5175955;27;20207;-43
2023/09/28 03:20:36;;;;;;;9.53;4.87;;;;;;;15.73;83.31;94923.44;5175648;27;20186;-44
2023/09/28 03:23:06;;;;;;;8.20;4.87;;;;;;;15.72;83.58;94921.84;5174829;27;20585;-46
2023/09/28 03:25:32;;;;;;;10.87;5.17;;;;;;;15.72;83.63;94924.44;5174884;27;20190;-44
2023/09/28 03:27:59;;;;;;;6.97;5.17;;;;;;;15.72;83.82;94927.00;5156076;27;20756;-44
2023/09/28 03:30:25;;;;;;;7.63;5.03;;;;;;;15.74;83.80;94925.06;5153783;27;20691;-47
2023/09/28 03:32:53;;;;;;;10.73;5.30;;;;;;;15.69;84.20;94914.44;5153772;27;20187;-47
2023/09/28 03:35:20;;;;;;;10.13;5.20;;;;;;;15.73;84.10;94920.06;5153406;27;20183;-46
2023/09/28 03:37:48;;;;;;;7.47;5.00;;;;;;;15.68;84.51;94917.97;5153813;27;20207;-44
2023/09/28 03:40:16;;;;;;;11.43;5.20;;;;;;;15.65;84.76;94918.31;5153331;27;20199;-46
2023/09/28 03:42:45;;;;;;;10.20;5.67;;;;;;;15.66;84.90;94921.69;5153353;27;20190;-46
2023/09/28 03:45:14;;;;;;;7.70;4.87;;;;;;;15.67;84.97;94920.69;5153314;27;20194;-44
2023/09/28 03:47:41;;;;;;;16.50;5.13;;;;;;;15.54;85.06;94903.13;5153028;27;20646;-44
2023/09/28 03:50:10;;;;;;;13.87;5.57;;;;;;;15.68;85.30;94933.44;5153060;27;20188;-47
2023/09/28 03:52:37;;;;;;;8.87;5.97;;;;;;;15.69;85.66;94931.69;5152989;27;20286;-44
2023/09/28 03:55:04;;;;;;;12.73;5.63;;;;;;;15.65;85.54;94933.78;5152796;27;20698;-44
2023/09/28 03:57:32;;;;;;;12.90;5.97;;;;;;;15.65;85.64;94938.94;5152967;27;20224;-44
2023/09/28 03:59:59;;;;;;;9.43;5.77;;;;;;;15.67;85.48;94937.00;5155695;27;20252;-43
2023/09/28 04:02:27;;;;;;;13.37;5.23;;;;;;;15.67;85.43;94938.75;5173589;27;20223;-44
2023/09/28 04:04:55;;;;;;;12.03;6.07;;;;;;;15.68;85.26;94932.66;5173817;27;20175;-44
2023/09/28 04:07:22;;;;;;;9.13;5.63;;;;;;;15.52;85.20;94908.44;5170323;27;20276;-44
2023/09/28 04:09:49;;;;;;;5.27;4.23;;;;;;;15.63;85.15;94934.84;5170673;27;20243;-46
2023/09/28 04:12:16;;;;;;;15.00;5.37;;;;;;;15.65;85.27;94925.22;5168586;27;20184;-46
2023/09/28 04:14:45;;;;;;;12.63;5.37;;;;;;;15.61;85.30;94935.03;5160147;27;20195;-45
2023/09/28 04:17:11;;;;;;;10.53;4.90;;;;;;;15.61;85.08;94926.50;5152354;27;20184;-47
2023/09/28 04:19:38;;;;;;;9.87;5.23;;;;;;;15.64;85.16;94928.75;5152513;27;20188;-46
2023/09/28 04:22:05;;;;;;;14.10;5.40;;;;;;;15.60;85.24;94928.28;5164668;27;20179;-44
2023/09/28 04:24:32;;;;;;;9.17;5.67;;;;;;;15.64;85.23;94934.75;5152533;27;20187;-44
2023/09/28 04:26:58;;;;;;;7.20;4.47;;;;;;;15.66;85.21;94932.78;5152236;27;20227;-47
2023/09/28 04:29:25;;;;;;;9.47;5.07;;;;;;;15.68;85.15;94933.44;5152489;27;20188;-45
2023/09/28 04:31:54;;;;;;;9.87;5.57;;;;;;;15.71;84.88;94927.94;5166926;27;20614;-45
2023/09/28 04:34:21;;;;;;;10.13;6.07;;;;;;;15.66;84.82;94932.78;5172899;27;20515;-44
2023/09/28 04:36:50;;;;;;;12.03;5.43;;;;;;;15.82;84.77;94941.50;5173364;27;20566;-47
2023/09/28 04:39:17;;;;;;;11.07;6.57;;;;;;;15.89;84.55;94947.59;5158818;27;20254;-47
2023/09/28 04:41:45;;;;;;;13.60;6.27;;;;;;;15.97;84.35;94947.56;5160247;27;20570;-45
2023/09/28 04:44:11;;;;;;;15.97;6.30;;;;;;;16.00;84.01;94942.09;5151655;27;20656;-46
2023/09/28 04:46:38;;;;;;;14.47;6.27;;;;;;;16.05;83.81;94945.78;5152895;27;20192;-45
2023/09/28 04:49:07;;;;;;;21.73;6.47;;;;;;;16.04;83.62;94948.53;5152136;27;20232;-45
2023/09/28 04:51:34;;;;;;;18.53;6.63;;;;;;;16.07;83.48;94944.84;5164791;27;20219;-44
2023/09/28 04:54:03;;;;;;;23.47;6.07;;;;;;;16.18;83.36;94952.22;5151857;27;20195;-46
2023/09/28 04:56:30;;;;;;;13.80;6.10;;;;;;;16.24;82.76;94954.16;5151507;27;20183;-45
2023/09/28 04:58:57;;;;;;;11.23;5.73;;;;;;;16.32;82.30;94959.28;5151462;27;20223;-44
2023/09/28 05:01:24;;;;;;;15.10;6.30;;;;;;;16.38;81.26;94956.03;5151657;27;20198;-45
2023/09/28 05:03:50;;;;;;;12.73;5.87;;;;;;;16.48;80.66;94958.41;5151391;27;20191;-44
2023/09/28 05:06:19;;;;;;;13.20;6.07;;;;;;;16.56;80.09;94964.34;5151890;27;20199;-45
2023/09/28 05:08:45;;;;;;;16.27;6.40;;;;;;;16.65;79.50;94961.72;5157540;27;20187;-45
2023/09/28 05:11:12;;;;;;;19.50;6.07;;;;;;;16.82;79.51;94965.06;5149561;27;20198;-44
2023/09/28 05:13:39;;;;;;;13.33;6.40;;;;;;;16.99;78.73;94964.81;5149340;27;20195;-44
2023/09/28 05:16:06;;;;;;;9.70;5.77;;;;;;;17.13;77.69;94968.44;5149184;27;20260;-44
2023/09/28 05:18:32;;;;;;;11.57;4.93;;;;;;;17.29;76.89;94976.09;5149314;27;20215;-44
2023/09/28 05:20:59;;;;;;;10.83;6.03;;;;;;;17.47;75.85;94967.25;5148652;27;20191;-45
2023/09/28 05:23:27;;;;;;;11.07;5.13;;;;;;;17.71;74.30;94963.66;5148580;27;20259;-47
2023/09/28 05:25:54;;;;;;;13.97;6.37;;;;;;;17.88;73.70;94966.97;5130081;27;20200;-45
2023/09/28 05:28:21;;;;;;;16.53;5.80;;;;;;;17.94;72.44;94967.03;5148592;27;20223;-46
2023/09/28 05:30:48;;;;;;;20.43;7.73;;;;;;;18.00;71.42;94966.34;5148831;27;20251;-45
2023/09/28 05:33:15;;;;;;;15.37;5.63;;;;;;;18.07;70.88;94968.22;5149060;27;20282;-46
2023/09/28 05:35:43;;;;;;;11.40;5.87;;;;;;;18.12;70.55;94974.47;5148658;27;20187;-46
2023/09/28 05:38:10;;;;;;;10.77;5.53;;;;;;;18.17;69.71;94974.72;5148066;27;20219;-45
2023/09/28 05:40:38;;;;;;;10.17;4.73;;;;;;;18.27;69.52;94982.25;5151448;27;20190;-46
2023/09/28 05:43:05;;;;;;;9.90;5.30;;;;;;;18.38;69.26;94983.59;5152074;27;20513;-45
2023/09/28 05:45:32;;;;;;;9.20;5.07;;;;;;;18.45;68.68;94989.66;5151031;27;20676;-44
2023/09/28 05:47:59;;;;;;;14.17;4.87;;;;;;;18.52;68.14;94987.97;5151017;27;20191;-45
2023/09/28 05:50:29;;;;;;;13.33;5.30;;;;;;;18.59;67.64;94981.09;5151129;27;20251;-45
2023/09/28 05:52:56;;;;;;;13.87;5.13;;;;;;;18.69;67.66;94980.81;5151355;27;20698;-44
2023/09/28 05:55:25;;;;;;;6.97;4.40;;;;;;;18.78;67.22;94979.75;5151500;27;20184;-46
2023/09/28 05:57:53;;;;;;;6.77;4.13;;;;;;;18.91;66.29;94990.28;5151201;27;20234;-46
2023/09/28 06:00:20;;;;;;;8.33;4.07;;;;;;;18.91;64.72;94987.72;5151052;27;20223;-45
2023/09/28 06:02:46;;;;;;;15.40;4.77;;;;;;;18.93;65.10;94987.50;5150845;27;20191;-44
2023/09/28 06:05:13;;;;;;;10.30;3.80;;;;;;;18.94;64.67;94991.72;5151213;27;20233;-44
2023/09/28 06:07:40;;;;;;;11.50;4.60;;;;;;;18.98;64.54;94985.19;5150900;27;20266;-45
2023/09/28 06:10:08;;;;;;;10.30;4.13;;;;;;;19.05;64.26;94993.84;5151134;27;20200;-45
2023/09/28 06:12:35;;;;;;;12.63;5.63;;;;;;;19.13;63.98;94982.53;5150787;27;20188;-43
2023/09/28 06:15:05;;;;;;;15.60;4.77;;;;;;;19.28;63.25;94988.50;5150833;27;20597;-45
2023/09/28 06:17:31;;;;;;;16.20;4.00;;;;;;;19.37;63.39;94984.00;5150478;27;20187;-45
2023/09/28 06:19:58;;;;;;;5.90;3.60;;;;;;;19.44;62.60;94982.28;5151042;27;20211;-48
2023/09/28 06:22:25;;;;;;;7.33;3.90;;;;;;;19.54;62.25;94988.75;5150741;27;20184;-45
2023/09/28 06:24:52;;;;;;;10.02;4.10;;;;;;;19.64;61.81;94985.88;5151146;27;20180;-46
2023/09/28 06:27:19;;;;;;;5.75;4.40;;;;;;;19.75;61.41;94984.56;5150401;27;20220;-45
2023/09/28 06:29:50;;;;;;;11.27;5.17;;;;;;;19.77;60.61;94983.41;5151573;27;20184;-44
2023/09/28 06:32:18;;;;;;;11.50;5.90;;;;;;;19.79;60.35;94988.41;5151167;27;20190;-44
2023/09/28 06:34:45;;;;;;;10.98;5.30;;;;;;;19.80;60.01;94988.19;5152124;27;20191;-44
2023/09/28 06:37:13;;;;;;;13.40;5.57;;;;;;;19.94;59.85;94981.31;5154971;27;20191;-45
2023/09/28 06:39:40;;;;;;;7.40;3.60;;;;;;;20.08;59.68;94987.44;5154159;27;20226;-46
2023/09/28 06:42:07;;;;;;;7.45;4.22;;;;;;;20.17;59.27;94994.09;5154986;27;20198;-45
2023/09/28 06:44:34;;;;;;;9.13;4.47;;;;;;;20.24;58.95;94999.31;5154377;27;20188;-44
2023/09/28 06:47:01;;;;;;;7.22;4.00;;;;;;;20.17;58.63;95001.88;5154690;27;20194;-45
2023/09/28 06:49:30;;;;;;;7.32;4.00;;;;;;;20.24;58.73;95001.91;5154213;27;20190;-44
2023/09/28 06:51:56;;;;;;;12.27;5.05;;;;;;;20.20;58.50;95004.06;5154577;27;20242;-43
2023/09/28 06:54:23;;;;;;;7.00;3.95;;;;;;;20.27;58.60;95004.94;5154408;27;20195;-45
2023/09/28 06:56:50;;;;;;;12.60;4.05;;;;;;;20.35;58.45;95008.38;5154390;27;20180;-45
2023/09/28 06:59:17;;;;;;;10.15;3.72;;;;;;;20.43;58.05;95001.25;5154154;27;20680;-46
2023/09/28 07:01:44;;;;;;;8.52;3.83;;;;;;;20.54;57.73;95012.91;5135570;27;20191;-47
2023/09/28 07:04:11;;;;;;;7.13;4.47;;;;;;;20.59;57.76;95007.16;5154292;27;20183;-46
2023/09/28 07:06:42;;;;;;;8.02;4.55;;;;;;;20.66;58.04;95014.00;5154595;27;20190;-45
2023/09/28 07:09:09;;;;;;;13.52;4.03;;;;;;;20.84;57.73;95017.88;5153934;27;20278;-45
2023/09/28 07:11:36;;;;;;;9.32;4.40;;;;;;;20.85;57.40;95017.66;5154079;27;20232;-44
2023/09/28 07:14:03;;;;;;;7.25;4.15;;;;;;;20.96;57.25;95009.34;5154170;27;20195;-46
2023/09/28 07:16:30;;;;;;;9.63;4.20;;;;;;;21.06;57.32;95008.97;5153739;27;20732;-45
2023/09/28 07:18:57;;;;;;;6.38;3.85;;;;;;;21.12;57.20;95017.81;5153897;27;20204;-45
2023/09/28 07:21:24;;;;;;;11.38;3.78;;;;;;;21.15;57.20;95014.78;5154008;27;20179;-45
2023/09/28 07:23:52;;;;;;;7.90;3.78;;;;;;;21.16;56.96;95022.41;5153837;27;20573;-47
2023/09/28 07:26:19;;;;;;;9.18;3.88;;;;;;;21.17;57.03;95007.63;5153715;27;20188;-46
2023/09/28 07:28:46;;;;;;;9.55;3.90;;;;;;;21.20;57.26;95018.44;5153741;27;20184;-47
2023/09/28 07:31:15;;;;;;;7.30;4.10;;;;;;;21.29;57.30;95012.06;5153723;27;20512;-45
2023/09/28 07:33:41;;;;;;;6.47;3.50;;;;;;;;;;5154005;27;20175;-47
2023/09/28 07:36:08;;;;;;;8.65;3.25;;;;;;;21.53;56.47;95018.53;5153344;27;20188;-44
2023/09/28 07:38:36;;;;;;;10.13;3.95;;;;;;;21.37;56.93;94994.66;5153524;27;20880;-46
2023/09/28 07:41:05;;;;;;;9.10;3.60;;;;;;;21.53;56.31;95017.72;5153219;27;20209;-44
2023/09/28 07:43:31;;;;;;;10.75;3.90;;;;;;;21.56;56.53;95009.53;5153757;27;20187;-45
2023/09/28 07:45:58;;;;;;;8.38;3.60;;;;;;;21.66;56.24;95020.34;5153128;27;20199;-46
2023/09/28 07:48:25;;;;;;;8.88;3.80;;;;;;;21.76;56.38;95014.75;5153437;27;20212;-45
2023/09/28 07:50:52;;;;;;;10.07;3.88;;;;;;;21.83;56.14;95014.78;5153209;27;20876;-45
2023/09/28 07:53:21;;;;;;;7.78;3.08;;;;;;;21.72;56.01;94990.16;5153005;27;20190;-44
2023/09/28 07:55:49;;;;;;;13.85;3.85;;;;;;;21.96;55.85;95018.19;5153280;27;20237;-45
2023/09/28 07:58:17;;;;;;;9.55;3.22;;;;;;;22.11;55.31;95012.00;5134340;27;20188;-44
2023/09/28 08:00:43;;;;;;;11.88;3.17;;;;;;;22.26;54.61;95004.78;5153005;27;20192;-45
2023/09/28 08:03:10;;;;;;;7.65;3.42;;;;;;;22.43;54.47;95007.75;5152877;27;20613;-45
2023/09/28 08:05:37;;;;;;;7.82;4.07;;;;;;;22.53;54.17;95010.75;5153262;27;20179;-45
2023/09/28 08:08:05;;;;;;;14.77;4.60;;;;;;;22.56;53.56;95007.72;5152766;27;20191;-45
2023/09/28 08:10:33;;;;;;;6.43;3.10;;;;;;;22.50;52.65;95005.97;5152996;27;20221;-44
2023/09/28 08:12:59;;;;;;;8.05;3.08;;;;;;;22.60;52.84;95013.34;5153066;27;20240;-46
2023/09/28 08:15:29;;;;;;;7.30;3.35;;;;;;;22.68;52.79;95010.53;5152975;27;20199;-45
2023/09/28 08:17:57;;;;;;;9.75;3.60;;;;;;;22.74;52.97;95012.31;5152864;27;20195;-45
2023/09/28 08:20:26;;;;;;;9.88;4.07;;;;;;;22.83;52.24;95012.88;5152789;27;20234;-46
2023/09/28 08:22:53;;;;;;;6.88;3.30;;;;;;;22.94;51.54;95007.84;5152457;27;20864;-46
2023/09/28 08:25:20;;;;;;;6.28;3.03;;;;;;;23.08;51.36;95013.03;5151879;27;20188;-47
2023/09/28 08:27:48;;;;;;;10.18;3.25;;;;;;;23.20;50.97;95013.97;5149350;27;20719;-46
2023/09/28 08:30:17;;;;;;;8.68;3.45;;;;;;;23.20;51.07;95001.72;5152442;27;20188;-47
2023/09/28 08:32:46;;;;;;;7.95;3.72;;;;;;;23.36;50.82;95016.09;5152531;27;20192;-45
2023/09/28 08:35:15;;;;;;;6.35;3.42;;;;;;;23.30;50.90;95006.50;5134051;27;20218;-46
2023/09/28 08:37:42;;;;;;;6.57;3.58;;;;;;;23.17;51.21;95017.00;5152481;27;20194;-46
2023/09/28 08:40:09;;;;;;;6.93;2.92;;;;;;;23.09;51.45;95017.22;5152067;27;20655;-45
2023/09/28 08:42:43;;;;;;;6.90;3.30;;;;;;;23.04;51.88;95007.41;5152581;27;20194;-46
2023/09/28 08:45:14;;;;;;;11.73;3.95;;;;;;;22.98;51.98;94996.00;5152042;27;20196;-46
2023/09/28 08:47:48;;;;;;;7.28;4.10;;;;;;;23.01;52.01;95006.03;5152497;27;20183;-45
2023/09/28 08:50:20;;;;;;;10.85;3.75;;;;;;;23.11;51.61;95002.19;5151950;27;20636;-46
2023/09/28 08:52:47;;;;;;;7.88;3.55;;;;;;;23.27;51.36;95002.50;5152080;27;20192;-44
2023/09/28 08:55:16;;;;;;;5.55;3.08;;;;;;;23.35;51.01;94998.81;5152050;27;20187;-44
2023/09/28 08:57:43;;;;;;;9.55;3.33;;;;;;;23.40;50.71;94998.19;5151226;27;20187;-45
2023/09/28 09:00:13;;;;;;;7.63;3.65;;;;;;;23.42;50.82;95004.03;5151670;27;20310;-44
2023/09/28 09:02:43;;;;;;;11.48;3.70;;;;;;;23.44;50.87;94997.56;5152021;27;20192;-48
2023/09/28 09:05:13;;;;;;;7.50;3.28;;;;;;;23.37;50.98;94981.16;5151873;27;20191;-46
2023/09/28 09:07:41;;;;;;;11.60;3.42;;;;;;;23.64;50.66;95001.88;5151641;27;20219;-45
2023/09/28 09:10:12;;;;;;;9.50;3.47;;;;;;;23.69;50.46;94999.47;5152053;27;20331;-45
2023/09/28 09:12:39;;;;;;;5.30;3.55;;;;;;;23.69;50.37;95002.06;5152334;27;20222;-47
2023/09/28 09:15:07;;;;;;;8.82;3.63;;;;;;;23.64;50.38;94997.44;5152387;27;20198;-47
2023/09/28 09:17:34;;;;;;;9.85;3.40;;;;;;;23.48;50.76;94980.47;5152019;27;20194;-47
2023/09/28 09:20:01;;;;;;;12.45;3.45;;;;;;;23.65;50.69;94995.66;5150860;27;20227;-45
2023/09/28 09:22:29;;;;;;;10.77;3.55;;;;;;;23.58;50.69;94981.84;5151956;27;20576;-44
2023/09/28 09:24:57;;;;;;;7.65;3.47;;;;;;;23.59;50.94;94992.06;5151792;27;20194;-44
2023/09/28 09:27:29;;;;;;;4.63;3.63;;;;;;;23.57;50.45;94994.06;5151291;27;20223;-46
2023/09/28 09:29:58;;;;;;;5.60;3.45;;;;;;;23.55;51.07;94990.88;5151017;27;20187;-45
2023/09/28 09:32:27;;;;;;;10.70;3.67;;;;;;;23.51;51.07;94995.72;5151781;27;20215;-44
2023/09/28 09:34:55;;;;;;;5.03;3.60;;;;;;;23.63;50.96;94982.00;5151128;27;20191;-46
2023/09/28 09:37:23;;;;;;;5.30;3.35;;;;;;;23.71;50.89;94984.41;5151027;27;20187;-44
2023/09/28 09:40:10;;;;;;;11.45;3.70;;;;;;;23.76;51.10;94982.75;5151222;27;20219;-46
2023/09/28 09:42:37;;;;;;;7.55;3.33;;;;;;;23.89;50.43;94981.03;5151544;27;20180;-45
2023/09/28 09:45:05;;;;;;;10.73;3.20;;;;;;;23.99;50.62;94973.50;5151227;27;20184;-46
2023/09/28 09:47:32;;;;;;;7.90;3.42;;;;;;;23.95;50.04;94980.19;5150742;27;20206;-46
2023/09/28 09:50:00;;;;;;;7.03;3.45;;;;;;;23.88;50.54;94974.22;5150714;27;20188;-44
2023/09/28 09:52:29;;;;;;;7.97;3.25;;;;;;;23.93;50.37;94967.34;5151016;27;20195;-45
2023/09/28 09:54:58;;;;;;;9.70;2.95;;;;;;;24.02;50.11;94970.47;5150869;27;20187;-44
2023/09/28 09:57:27;;;;;;;7.47;3.33;;;;;;;23.98;49.97;94974.53;5151689;27;20186;-47
2023/09/28 09:59:54;;;;;;;9.88;4.07;;;;;;;24.01;50.28;94959.22;5151484;27;20218;-45
2023/09/28 10:02:26;;;;;;;4.63;2.80;;;;;;;24.29;50.14;94966.59;5152174;27;20659;-47
2023/09/28 10:05:03;;;;;;;7.10;3.28;;;;;;;24.52;49.89;94970.41;5152124;27;20310;-47
2023/09/28 10:07:34;;;;;;;7.90;3.47;;;;;;;24.72;49.27;94963.16;5152136;27;20198;-47
2023/09/28 10:10:05;;;;;;;3.75;3.17;;;;;;;25.01;48.38;94966.84;5151676;27;20644;-46
2023/09/28 10:12:32;;;;;;;5.18;3.38;;;;;;;25.13;48.35;94955.66;5149740;27;20625;-48
2023/09/28 10:15:16;;;;;;;6.50;3.40;;;;;;;25.16;48.31;94955.22;5151208;27;20199;-48
2023/09/28 10:17:43;;;;;;;12.13;5.72;;;;;;;25.12;48.13;94943.59;5151447;27;20251;-47
2023/09/28 10:20:14;;;;;;;8.20;4.18;;;;;;;25.25;48.58;94964.34;5151731;27;20207;-47
2023/09/28 10:22:44;;;;;;;9.82;3.88;;;;;;;24.86;49.40;94940.25;5151868;27;20196;-47
2023/09/28 10:25:14;;;;;;;7.43;3.65;;;;;;;24.83;50.70;94972.13;5151853;27;20196;-46
2023/09/28 10:27:46;;;;;;;10.73;4.07;;;;;;;24.45;51.69;94954.03;5150091;27;20215;-48
2023/09/28 10:30:19;;;;;;;9.23;4.75;;;;;;;24.49;52.17;94958.59;5150761;27;20617;-49
2023/09/28 10:32:46;;;;;;;7.95;4.55;;;;;;;24.24;53.13;94971.69;5152077;27;20583;-46
2023/09/28 10:38:24;;;;;;;11.80;5.18;;;;;;;24.02;54.13;94958.22;5146389;27;20211;-45
2023/09/28 10:41:06;;;;;;;9.88;3.55;;;;;;;24.05;53.65;94954.38;5150697;27;20223;-46
2023/09/28 10:43:34;;;;;;;5.82;3.75;;;;;;;24.06;53.91;94952.56;5150592;27;20196;-46
2023/09/28 10:46:10;;;;;;;7.65;3.67;;;;;;;24.17;53.76;94949.22;5150713;27;20573;-45
2023/09/28 10:48:41;;;;;;;9.95;4.10;;;;;;;24.22;53.41;94933.69;5150442;27;20620;-47
2023/09/28 10:51:12;;;;;;;6.20;3.38;;;;;;;24.42;52.51;94954.44;5150669;27;20200;-48
2023/09/28 10:53:39;;;;;;;9.15;3.85;;;;;;;24.40;52.99;94946.03;5150442;27;20259;-46
2023/09/28 10:56:08;;;;;;;11.82;3.30;;;;;;;24.60;51.96;94945.81;5149863;27;20195;-45
2023/09/28 10:58:38;;;;;;;8.15;3.38;;;;;;;24.78;52.07;94937.94;5150125;27;20693;-44
2023/09/28 11:01:06;;;;;;;9.88;3.90;;;;;;;24.74;51.64;94927.13;5150035;27;20684;-44
2023/09/28 11:03:35;;;;;;;8.40;3.17;;;;;;;25.02;50.98;94944.88;5149894;27;20271;-47
2023/09/28 11:06:03;;;;;;;5.63;3.55;;;;;;;24.85;51.39;94948.34;5150438;27;20191;-44
2023/09/28 11:08:30;;;;;;;6.97;3.60;;;;;;;24.98;50.79;94942.94;5150689;27;20188;-44
2023/09/28 11:10:58;;;;;;;8.43;3.35;;;;;;;25.22;49.93;94934.19;5150405;27;20631;-47
2023/09/28 11:13:27;;;;;;;9.05;3.38;;;;;;;25.35;50.48;94940.28;5150170;27;20290;-44
2023/09/28 11:15:54;;;;;;;5.15;3.22;;;;;;;25.49;50.43;94933.81;5150428;27;20256;-45
2023/09/28 11:18:22;;;;;;;13.05;4.05;;;;;;;25.68;50.35;94931.91;5150229;27;20175;-44
2023/09/28 11:20:49;;;;;;;7.05;3.60;;;;;;;25.73;49.57;94943.31;5150860;27;20219;-45
2023/09/28 11:23:15;;;;;;;7.47;3.28;;;;;;;25.78;49.08;94934.81;5154314;27;20194;-46
2023/09/28 11:25:43;;;;;;;10.07;3.85;;;;;;;25.82;48.61;94924.66;5153763;27;20184;-45
2023/09/28 11:28:10;;;;;;;6.05;3.42;;;;;;;25.98;48.36;94927.41;5153616;27;20238;-46
2023/09/28 11:30:39;;;;;;;5.43;3.25;;;;;;;25.98;48.42;94924.78;5153715;27;20556;-46
2023/09/28 11:33:07;;;;;;;10.45;4.05;;;;;;;25.93;48.26;94923.88;5153413;27;20677;-44
2023/09/28 11:35:35;;;;;;;7.78;3.83;;;;;;;25.86;48.57;94931.03;5153640;27;20184;-45
2023/09/28 11:38:03;;;;;;;7.90;3.83;;;;;;;24.93;48.29;94807.53;5153422;27;20703;-46